Sugar Land, Texas
Current Conditions -  °F | °C
As of 5:53 AM on Thursday 27 Nov 2014 (Local Time) from KSGR Reporting Station
Clear Clear  
Wind Chill: 44°   Ceiling: Unl
Heat Index: 48°   Visibility: 10mi
Dew Point: 38°   Wind: 8mph
Humidity: 68%   Direction: 30°NNE
Pressure: 30.41"   Gusts: NA
Location:  29.63°N, 95.6°W
Report Text: KSGR 271153Z 03007KT 10SM CLR 09/03 A3041 RMK AO2 SLP299 T00890033 10100 20067 53016
Loading
Personal Weather Stations






























Interactive Weather Map New forecast layout! Learn more

10-Day Weather Forecast

Advertisements
Track Severe Weather on mobile